sensor_id;sensor_type;location;lat;lon;timestamp;P1;durP1;ratioP1;P2;durP2;ratioP2
55483;SDS011;41345;51.704;5.146;2023-07-13T00:04:51;8.68;;;4.50;;
55483;SDS011;41345;51.704;5.146;2023-07-13T00:09:52;7.18;;;4.07;;
55483;SDS011;41345;51.704;5.146;2023-07-13T00:14:52;7.28;;;4.47;;
55483;SDS011;41345;51.704;5.146;2023-07-13T00:19:53;9.07;;;4.30;;
55483;SDS011;41345;51.704;5.146;2023-07-13T00:24:53;15.13;;;5.57;;
55483;SDS011;41345;51.704;5.146;2023-07-13T00:29:55;10.82;;;5.95;;
55483;SDS011;41345;51.704;5.146;2023-07-13T00:34:55;12.32;;;6.43;;
55483;SDS011;41345;51.704;5.146;2023-07-13T00:39:57;12.07;;;6.95;;
55483;SDS011;41345;51.704;5.146;2023-07-13T00:45:05;10.80;;;7.65;;
55483;SDS011;41345;51.704;5.146;2023-07-13T00:50:10;13.20;;;7.40;;
55483;SDS011;41345;51.704;5.146;2023-07-13T00:55:11;13.85;;;8.93;;
55483;SDS011;41345;51.704;5.146;2023-07-13T01:00:13;12.43;;;11.32;;
55483;SDS011;41345;51.704;5.146;2023-07-13T01:05:16;13.40;;;11.25;;
55483;SDS011;41345;51.704;5.146;2023-07-13T01:10:16;14.13;;;10.70;;
55483;SDS011;41345;51.704;5.146;2023-07-13T01:20:36;18.60;;;13.95;;
55483;SDS011;41345;51.704;5.146;2023-07-13T01:25:37;17.52;;;15.65;;
55483;SDS011;41345;51.704;5.146;2023-07-13T01:30:38;22.92;;;21.10;;
55483;SDS011;41345;51.704;5.146;2023-07-13T01:35:40;24.48;;;22.40;;
55483;SDS011;41345;51.704;5.146;2023-07-13T01:40:40;22.83;;;20.47;;
55483;SDS011;41345;51.704;5.146;2023-07-13T01:45:40;23.45;;;21.23;;
55483;SDS011;41345;51.704;5.146;2023-07-13T01:50:41;28.70;;;25.97;;
55483;SDS011;41345;51.704;5.146;2023-07-13T01:55:41;27.95;;;25.45;;
55483;SDS011;41345;51.704;5.146;2023-07-13T02:00:42;31.33;;;28.80;;
55483;SDS011;41345;51.704;5.146;2023-07-13T02:05:42;33.40;;;30.60;;
55483;SDS011;41345;51.704;5.146;2023-07-13T02:10:43;34.85;;;32.50;;
55483;SDS011;41345;51.704;5.146;2023-07-13T02:15:43;37.05;;;34.15;;
55483;SDS011;41345;51.704;5.146;2023-07-13T02:20:43;36.92;;;34.25;;
55483;SDS011;41345;51.704;5.146;2023-07-13T02:25:45;41.08;;;38.17;;
55483;SDS011;41345;51.704;5.146;2023-07-13T02:30:45;50.00;;;46.85;;
55483;SDS011;41345;51.704;5.146;2023-07-13T02:35:45;50.10;;;46.90;;
55483;SDS011;41345;51.704;5.146;2023-07-13T02:40:46;52.87;;;48.97;;
55483;SDS011;41345;51.704;5.146;2023-07-13T02:45:46;49.33;;;46.15;;
55483;SDS011;41345;51.704;5.146;2023-07-13T02:50:46;58.60;;;55.07;;
55483;SDS011;41345;51.704;5.146;2023-07-13T02:55:47;52.17;;;48.40;;
55483;SDS011;41345;51.704;5.146;2023-07-13T03:00:47;63.30;;;58.83;;
55483;SDS011;41345;51.704;5.146;2023-07-13T03:05:57;63.40;;;59.50;;
55483;SDS011;41345;51.704;5.146;2023-07-13T03:11:01;66.43;;;62.20;;
55483;SDS011;41345;51.704;5.146;2023-07-13T03:16:02;64.38;;;60.17;;
55483;SDS011;41345;51.704;5.146;2023-07-13T03:21:03;67.22;;;62.63;;
55483;SDS011;41345;51.704;5.146;2023-07-13T03:26:05;68.65;;;64.30;;
55483;SDS011;41345;51.704;5.146;2023-07-13T03:31:07;76.63;;;72.03;;
55483;SDS011;41345;51.704;5.146;2023-07-13T03:36:10;74.20;;;69.75;;
55483;SDS011;41345;51.704;5.146;2023-07-13T03:41:11;77.23;;;72.43;;
55483;SDS011;41345;51.704;5.146;2023-07-13T03:46:11;85.03;;;79.80;;
55483;SDS011;41345;51.704;5.146;2023-07-13T03:51:12;88.75;;;83.43;;
55483;SDS011;41345;51.704;5.146;2023-07-13T03:56:14;86.60;;;81.28;;
55483;SDS011;41345;51.704;5.146;2023-07-13T04:01:16;97.47;;;91.53;;
55483;SDS011;41345;51.704;5.146;2023-07-13T04:06:18;90.57;;;85.38;;
55483;SDS011;41345;51.704;5.146;2023-07-13T04:11:23;95.60;;;90.25;;
55483;SDS011;41345;51.704;5.146;2023-07-13T04:16:23;105.65;;;98.97;;
55483;SDS011;41345;51.704;5.146;2023-07-13T04:21:24;103.55;;;97.65;;
55483;SDS011;41345;51.704;5.146;2023-07-13T04:26:24;107.33;;;100.37;;
55483;SDS011;41345;51.704;5.146;2023-07-13T04:31:25;102.45;;;96.45;;
55483;SDS011;41345;51.704;5.146;2023-07-13T04:36:25;113.72;;;107.13;;
55483;SDS011;41345;51.704;5.146;2023-07-13T04:41:27;124.15;;;116.57;;
55483;SDS011;41345;51.704;5.146;2023-07-13T04:46:28;154.10;;;144.25;;
55483;SDS011;41345;51.704;5.146;2023-07-13T04:51:28;150.43;;;141.93;;
55483;SDS011;41345;51.704;5.146;2023-07-13T04:56:28;135.98;;;127.38;;
55483;SDS011;41345;51.704;5.146;2023-07-13T05:01:30;168.25;;;158.05;;
55483;SDS011;41345;51.704;5.146;2023-07-13T05:06:30;143.45;;;134.50;;
55483;SDS011;41345;51.704;5.146;2023-07-13T05:11:33;150.40;;;141.43;;
55483;SDS011;41345;51.704;5.146;2023-07-13T05:16:33;150.27;;;140.93;;
55483;SDS011;41345;51.704;5.146;2023-07-13T05:21:33;141.33;;;132.60;;
55483;SDS011;41345;51.704;5.146;2023-07-13T05:26:34;155.30;;;146.38;;
55483;SDS011;41345;51.704;5.146;2023-07-13T05:31:34;120.45;;;112.95;;
55483;SDS011;41345;51.704;5.146;2023-07-13T05:36:34;114.57;;;106.82;;
55483;SDS011;41345;51.704;5.146;2023-07-13T05:41:35;112.07;;;104.90;;
55483;SDS011;41345;51.704;5.146;2023-07-13T05:46:35;118.10;;;110.63;;
55483;SDS011;41345;51.704;5.146;2023-07-13T05:51:36;126.73;;;118.67;;
55483;SDS011;41345;51.704;5.146;2023-07-13T05:56:36;113.55;;;106.65;;
55483;SDS011;41345;51.704;5.146;2023-07-13T06:01:36;106.65;;;99.32;;
55483;SDS011;41345;51.704;5.146;2023-07-13T06:06:37;105.07;;;98.85;;
55483;SDS011;41345;51.704;5.146;2023-07-13T06:11:37;95.03;;;89.07;;
55483;SDS011;41345;51.704;5.146;2023-07-13T06:16:37;108.38;;;101.50;;
55483;SDS011;41345;51.704;5.146;2023-07-13T06:21:38;116.57;;;108.93;;
55483;SDS011;41345;51.704;5.146;2023-07-13T06:26:38;121.50;;;113.73;;
55483;SDS011;41345;51.704;5.146;2023-07-13T06:31:38;119.57;;;111.28;;
55483;SDS011;41345;51.704;5.146;2023-07-13T06:36:38;103.35;;;96.18;;
55483;SDS011;41345;51.704;5.146;2023-07-13T06:41:39;96.95;;;90.00;;
55483;SDS011;41345;51.704;5.146;2023-07-13T06:46:39;96.87;;;90.17;;
55483;SDS011;41345;51.704;5.146;2023-07-13T06:51:39;97.03;;;89.93;;
55483;SDS011;41345;51.704;5.146;2023-07-13T06:56:40;90.37;;;83.97;;
55483;SDS011;41345;51.704;5.146;2023-07-13T07:01:40;89.72;;;82.90;;
55483;SDS011;41345;51.704;5.146;2023-07-13T07:06:40;89.72;;;83.38;;
55483;SDS011;41345;51.704;5.146;2023-07-13T07:11:40;89.22;;;82.60;;
55483;SDS011;41345;51.704;5.146;2023-07-13T07:16:42;70.38;;;65.25;;
55483;SDS011;41345;51.704;5.146;2023-07-13T07:21:42;64.57;;;59.22;;
55483;SDS011;41345;51.704;5.146;2023-07-13T07:26:42;61.13;;;55.73;;
55483;SDS011;41345;51.704;5.146;2023-07-13T07:31:43;61.40;;;56.63;;
55483;SDS011;41345;51.704;5.146;2023-07-13T07:36:43;47.72;;;43.78;;
55483;SDS011;41345;51.704;5.146;2023-07-13T07:41:43;44.05;;;40.17;;
55483;SDS011;41345;51.704;5.146;2023-07-13T07:46:43;29.07;;;26.40;;
55483;SDS011;41345;51.704;5.146;2023-07-13T07:51:44;27.20;;;22.73;;
55483;SDS011;41345;51.704;5.146;2023-07-13T07:56:44;23.87;;;21.47;;
55483;SDS011;41345;51.704;5.146;2023-07-13T08:01:44;23.27;;;16.30;;
55483;SDS011;41345;51.704;5.146;2023-07-13T08:06:46;22.25;;;16.10;;
55483;SDS011;41345;51.704;5.146;2023-07-13T08:11:46;16.63;;;13.50;;
55483;SDS011;41345;51.704;5.146;2023-07-13T08:16:47;18.60;;;13.63;;
55483;SDS011;41345;51.704;5.146;2023-07-13T08:21:47;18.65;;;14.68;;
55483;SDS011;41345;51.704;5.146;2023-07-13T08:26:48;18.05;;;9.50;;
55483;SDS011;41345;51.704;5.146;2023-07-13T08:31:49;15.50;;;11.00;;
55483;SDS011;41345;51.704;5.146;2023-07-13T08:36:50;10.95;;;4.35;;
55483;SDS011;41345;51.704;5.146;2023-07-13T08:41:53;11.10;;;4.20;;
55483;SDS011;41345;51.704;5.146;2023-07-13T08:46:55;11.82;;;3.92;;
55483;SDS011;41345;51.704;5.146;2023-07-13T08:52:03;15.97;;;4.83;;
55483;SDS011;41345;51.704;5.146;2023-07-13T08:57:13;10.85;;;3.40;;
55483;SDS011;41345;51.704;5.146;2023-07-13T09:02:20;17.92;;;5.57;;
55483;SDS011;41345;51.704;5.146;2023-07-13T09:07:26;10.95;;;4.32;;
55483;SDS011;41345;51.704;5.146;2023-07-13T09:17:36;10.52;;;4.07;;
55483;SDS011;41345;51.704;5.146;2023-07-13T09:22:39;7.32;;;3.42;;
55483;SDS011;41345;51.704;5.146;2023-07-13T09:27:42;13.52;;;4.10;;
55483;SDS011;41345;51.704;5.146;2023-07-13T09:32:45;13.55;;;4.15;;
55483;SDS011;41345;51.704;5.146;2023-07-13T09:37:47;10.90;;;3.22;;
55483;SDS011;41345;51.704;5.146;2023-07-13T09:42:48;14.65;;;3.05;;
55483;SDS011;41345;51.704;5.146;2023-07-13T09:47:48;12.00;;;3.30;;
55483;SDS011;41345;51.704;5.146;2023-07-13T09:52:58;8.38;;;2.90;;
55483;SDS011;41345;51.704;5.146;2023-07-13T10:03:18;9.50;;;2.60;;
55483;SDS011;41345;51.704;5.146;2023-07-13T10:08:28;12.63;;;2.97;;
55483;SDS011;41345;51.704;5.146;2023-07-13T10:13:34;8.93;;;3.00;;
55483;SDS011;41345;51.704;5.146;2023-07-13T10:18:46;11.00;;;3.55;;
55483;SDS011;41345;51.704;5.146;2023-07-13T10:23:49;12.02;;;4.10;;
55483;SDS011;41345;51.704;5.146;2023-07-13T10:28:52;13.40;;;4.67;;
55483;SDS011;41345;51.704;5.146;2023-07-13T10:33:53;15.57;;;7.95;;
55483;SDS011;41345;51.704;5.146;2023-07-13T10:38:53;17.13;;;7.87;;
55483;SDS011;41345;51.704;5.146;2023-07-13T10:43:55;27.38;;;25.38;;
55483;SDS011;41345;51.704;5.146;2023-07-13T10:49:05;12.38;;;8.43;;
55483;SDS011;41345;51.704;5.146;2023-07-13T10:54:16;10.70;;;8.95;;
55483;SDS011;41345;51.704;5.146;2023-07-13T10:59:24;11.70;;;6.18;;
55483;SDS011;41345;51.704;5.146;2023-07-13T11:04:26;9.25;;;5.13;;
55483;SDS011;41345;51.704;5.146;2023-07-13T11:09:31;10.63;;;6.53;;
55483;SDS011;41345;51.704;5.146;2023-07-13T11:14:37;15.20;;;11.55;;
55483;SDS011;41345;51.704;5.146;2023-07-13T11:19:39;11.23;;;7.47;;
55483;SDS011;41345;51.704;5.146;2023-07-13T11:25:00;8.82;;;3.65;;
55483;SDS011;41345;51.704;5.146;2023-07-13T11:30:08;6.88;;;2.75;;
55483;SDS011;41345;51.704;5.146;2023-07-13T11:35:14;8.52;;;2.60;;
55483;SDS011;41345;51.704;5.146;2023-07-13T11:40:17;9.55;;;2.42;;
55483;SDS011;41345;51.704;5.146;2023-07-13T11:45:21;6.28;;;2.28;;
55483;SDS011;41345;51.704;5.146;2023-07-13T11:50:23;7.47;;;2.25;;
55483;SDS011;41345;51.704;5.146;2023-07-13T11:55:23;5.60;;;2.03;;
55483;SDS011;41345;51.704;5.146;2023-07-13T12:00:28;4.30;;;1.92;;
55483;SDS011;41345;51.704;5.146;2023-07-13T12:05:29;7.80;;;1.90;;
55483;SDS011;41345;51.704;5.146;2023-07-13T12:10:31;8.70;;;2.20;;
55483;SDS011;41345;51.704;5.146;2023-07-13T12:15:43;5.40;;;2.15;;
55483;SDS011;41345;51.704;5.146;2023-07-13T12:20:45;4.85;;;1.83;;
55483;SDS011;41345;51.704;5.146;2023-07-13T12:25:46;4.63;;;1.80;;
55483;SDS011;41345;51.704;5.146;2023-07-13T12:30:47;7.13;;;2.30;;
55483;SDS011;41345;51.704;5.146;2023-07-13T12:35:49;9.05;;;2.25;;
55483;SDS011;41345;51.704;5.146;2023-07-13T12:40:50;9.70;;;1.90;;
55483;SDS011;41345;51.704;5.146;2023-07-13T12:51:13;7.35;;;2.35;;
55483;SDS011;41345;51.704;5.146;2023-07-13T12:56:32;4.60;;;1.77;;
55483;SDS011;41345;51.704;5.146;2023-07-13T13:01:34;6.05;;;1.88;;
55483;SDS011;41345;51.704;5.146;2023-07-13T13:06:35;4.63;;;1.70;;
55483;SDS011;41345;51.704;5.146;2023-07-13T13:11:36;5.70;;;1.98;;
55483;SDS011;41345;51.704;5.146;2023-07-13T13:16:48;8.40;;;1.98;;
55483;SDS011;41345;51.704;5.146;2023-07-13T13:21:53;4.75;;;1.85;;
55483;SDS011;41345;51.704;5.146;2023-07-13T13:26:54;5.15;;;1.60;;
55483;SDS011;41345;51.704;5.146;2023-07-13T13:31:56;6.53;;;1.77;;
55483;SDS011;41345;51.704;5.146;2023-07-13T13:36:57;7.37;;;1.70;;
55483;SDS011;41345;51.704;5.146;2023-07-13T13:41:57;6.93;;;2.50;;
55483;SDS011;41345;51.704;5.146;2023-07-13T13:46:57;7.95;;;3.00;;
55483;SDS011;41345;51.704;5.146;2023-07-13T13:51:58;8.93;;;2.53;;
55483;SDS011;41345;51.704;5.146;2023-07-13T13:56:59;7.50;;;2.50;;
55483;SDS011;41345;51.704;5.146;2023-07-13T14:01:59;6.65;;;2.53;;
55483;SDS011;41345;51.704;5.146;2023-07-13T14:07:00;9.75;;;2.60;;
55483;SDS011;41345;51.704;5.146;2023-07-13T14:12:01;7.95;;;2.55;;
55483;SDS011;41345;51.704;5.146;2023-07-13T14:17:01;8.60;;;2.10;;
55483;SDS011;41345;51.704;5.146;2023-07-13T14:22:01;8.13;;;2.47;;
55483;SDS011;41345;51.704;5.146;2023-07-13T14:27:01;9.60;;;2.45;;
55483;SDS011;41345;51.704;5.146;2023-07-13T14:32:02;7.90;;;2.70;;
55483;SDS011;41345;51.704;5.146;2023-07-13T14:37:02;7.55;;;2.03;;
55483;SDS011;41345;51.704;5.146;2023-07-13T14:42:04;9.20;;;2.20;;
55483;SDS011;41345;51.704;5.146;2023-07-13T14:47:04;7.57;;;1.97;;
55483;SDS011;41345;51.704;5.146;2023-07-13T14:52:09;4.85;;;1.70;;
55483;SDS011;41345;51.704;5.146;2023-07-13T14:57:11;6.32;;;2.35;;
55483;SDS011;41345;51.704;5.146;2023-07-13T15:02:22;6.78;;;1.95;;
55483;SDS011;41345;51.704;5.146;2023-07-13T15:07:24;7.55;;;2.33;;
55483;SDS011;41345;51.704;5.146;2023-07-13T15:12:24;6.32;;;3.08;;
55483;SDS011;41345;51.704;5.146;2023-07-13T15:17:31;6.13;;;1.63;;
55483;SDS011;41345;51.704;5.146;2023-07-13T15:22:32;6.55;;;2.10;;
55483;SDS011;41345;51.704;5.146;2023-07-13T15:27:32;8.68;;;2.47;;
55483;SDS011;41345;51.704;5.146;2023-07-13T15:32:33;10.30;;;1.87;;
55483;SDS011;41345;51.704;5.146;2023-07-13T15:37:33;9.27;;;2.13;;
55483;SDS011;41345;51.704;5.146;2023-07-13T15:42:33;7.47;;;1.88;;
55483;SDS011;41345;51.704;5.146;2023-07-13T15:47:36;7.20;;;2.10;;
55483;SDS011;41345;51.704;5.146;2023-07-13T15:52:36;5.77;;;1.57;;
55483;SDS011;41345;51.704;5.146;2023-07-13T15:57:36;6.78;;;1.70;;
55483;SDS011;41345;51.704;5.146;2023-07-13T16:02:37;9.32;;;2.05;;
55483;SDS011;41345;51.704;5.146;2023-07-13T16:07:37;7.57;;;1.70;;
55483;SDS011;41345;51.704;5.146;2023-07-13T16:12:38;6.80;;;1.73;;
55483;SDS011;41345;51.704;5.146;2023-07-13T16:17:38;5.50;;;1.60;;
55483;SDS011;41345;51.704;5.146;2023-07-13T16:22:41;6.20;;;1.83;;
55483;SDS011;41345;51.704;5.146;2023-07-13T16:27:44;6.35;;;2.00;;
55483;SDS011;41345;51.704;5.146;2023-07-13T16:32:44;5.47;;;1.50;;
55483;SDS011;41345;51.704;5.146;2023-07-13T16:37:45;4.72;;;1.48;;
55483;SDS011;41345;51.704;5.146;2023-07-13T16:42:45;5.40;;;1.40;;
55483;SDS011;41345;51.704;5.146;2023-07-13T16:47:46;8.00;;;1.95;;
55483;SDS011;41345;51.704;5.146;2023-07-13T16:52:48;5.07;;;1.30;;
55483;SDS011;41345;51.704;5.146;2023-07-13T16:57:49;5.63;;;1.30;;
55483;SDS011;41345;51.704;5.146;2023-07-13T17:02:49;3.90;;;1.48;;
55483;SDS011;41345;51.704;5.146;2023-07-13T17:07:51;3.78;;;1.45;;
55483;SDS011;41345;51.704;5.146;2023-07-13T17:12:53;6.10;;;1.80;;
55483;SDS011;41345;51.704;5.146;2023-07-13T17:17:54;6.75;;;2.20;;
55483;SDS011;41345;51.704;5.146;2023-07-13T17:23:11;5.00;;;2.10;;
55483;SDS011;41345;51.704;5.146;2023-07-13T17:28:12;5.30;;;1.60;;
55483;SDS011;41345;51.704;5.146;2023-07-13T17:33:19;4.75;;;1.67;;
55483;SDS011;41345;51.704;5.146;2023-07-13T17:38:21;4.28;;;1.55;;
55483;SDS011;41345;51.704;5.146;2023-07-13T17:43:21;4.70;;;1.92;;
55483;SDS011;41345;51.704;5.146;2023-07-13T17:48:23;7.00;;;1.70;;
55483;SDS011;41345;51.704;5.146;2023-07-13T17:53:24;5.57;;;1.67;;
55483;SDS011;41345;51.704;5.146;2023-07-13T17:58:24;12.27;;;2.30;;
55483;SDS011;41345;51.704;5.146;2023-07-13T18:03:26;5.25;;;1.88;;
55483;SDS011;41345;51.704;5.146;2023-07-13T18:08:50;8.32;;;2.03;;
55483;SDS011;41345;51.704;5.146;2023-07-13T18:13:50;7.30;;;1.77;;
55483;SDS011;41345;51.704;5.146;2023-07-13T18:18:51;7.32;;;1.75;;
55483;SDS011;41345;51.704;5.146;2023-07-13T18:23:51;5.07;;;1.50;;
55483;SDS011;41345;51.704;5.146;2023-07-13T18:28:52;4.57;;;1.38;;
55483;SDS011;41345;51.704;5.146;2023-07-13T18:33:53;8.80;;;1.77;;
55483;SDS011;41345;51.704;5.146;2023-07-13T18:38:54;6.53;;;1.95;;
55483;SDS011;41345;51.704;5.146;2023-07-13T18:43:54;7.40;;;1.50;;
55483;SDS011;41345;51.704;5.146;2023-07-13T18:48:55;3.70;;;1.48;;
55483;SDS011;41345;51.704;5.146;2023-07-13T18:53:55;6.43;;;1.63;;
55483;SDS011;41345;51.704;5.146;2023-07-13T18:58:55;7.25;;;1.73;;
55483;SDS011;41345;51.704;5.146;2023-07-13T19:03:56;16.55;;;1.90;;
55483;SDS011;41345;51.704;5.146;2023-07-13T19:08:56;4.78;;;1.50;;
55483;SDS011;41345;51.704;5.146;2023-07-13T19:13:57;9.35;;;1.52;;
55483;SDS011;41345;51.704;5.146;2023-07-13T19:18:57;4.82;;;1.70;;
55483;SDS011;41345;51.704;5.146;2023-07-13T19:23:59;9.85;;;2.05;;
55483;SDS011;41345;51.704;5.146;2023-07-13T19:29:00;4.53;;;1.50;;
55483;SDS011;41345;51.704;5.146;2023-07-13T19:34:05;8.23;;;2.33;;
55483;SDS011;41345;51.704;5.146;2023-07-13T19:39:25;5.80;;;1.42;;
55483;SDS011;41345;51.704;5.146;2023-07-13T19:44:25;5.50;;;1.73;;
55483;SDS011;41345;51.704;5.146;2023-07-13T19:49:26;4.13;;;1.40;;
55483;SDS011;41345;51.704;5.146;2023-07-13T19:54:27;4.40;;;1.50;;
55483;SDS011;41345;51.704;5.146;2023-07-13T19:59:29;7.20;;;1.90;;
55483;SDS011;41345;51.704;5.146;2023-07-13T20:04:30;3.25;;;1.40;;
55483;SDS011;41345;51.704;5.146;2023-07-13T20:09:30;5.20;;;1.40;;
55483;SDS011;41345;51.704;5.146;2023-07-13T20:14:34;4.82;;;1.90;;
55483;SDS011;41345;51.704;5.146;2023-07-13T20:19:34;4.28;;;2.00;;
55483;SDS011;41345;51.704;5.146;2023-07-13T20:24:35;9.05;;;2.33;;
55483;SDS011;41345;51.704;5.146;2023-07-13T20:29:35;5.93;;;5.25;;
55483;SDS011;41345;51.704;5.146;2023-07-13T20:34:37;7.72;;;5.63;;
55483;SDS011;41345;51.704;5.146;2023-07-13T20:39:38;14.07;;;12.98;;
55483;SDS011;41345;51.704;5.146;2023-07-13T20:44:38;14.27;;;13.07;;
55483;SDS011;41345;51.704;5.146;2023-07-13T20:49:38;12.85;;;11.55;;
55483;SDS011;41345;51.704;5.146;2023-07-13T20:54:39;20.27;;;18.87;;
55483;SDS011;41345;51.704;5.146;2023-07-13T20:59:44;29.70;;;28.02;;
55483;SDS011;41345;51.704;5.146;2023-07-13T21:04:45;36.30;;;34.28;;
55483;SDS011;41345;51.704;5.146;2023-07-13T21:09:45;53.03;;;50.45;;
55483;SDS011;41345;51.704;5.146;2023-07-13T21:14:47;59.85;;;56.25;;
55483;SDS011;41345;51.704;5.146;2023-07-13T21:19:47;48.95;;;46.53;;
55483;SDS011;41345;51.704;5.146;2023-07-13T21:24:48;58.75;;;55.83;;
55483;SDS011;41345;51.704;5.146;2023-07-13T21:29:48;40.15;;;38.05;;
55483;SDS011;41345;51.704;5.146;2023-07-13T21:34:52;48.72;;;45.95;;
55483;SDS011;41345;51.704;5.146;2023-07-13T21:39:53;21.70;;;20.03;;
55483;SDS011;41345;51.704;5.146;2023-07-13T21:44:54;15.27;;;13.25;;
55483;SDS011;41345;51.704;5.146;2023-07-13T21:49:54;14.30;;;13.02;;
55483;SDS011;41345;51.704;5.146;2023-07-13T21:54:54;35.70;;;33.72;;
55483;SDS011;41345;51.704;5.146;2023-07-13T21:59:55;12.20;;;11.07;;
55483;SDS011;41345;51.704;5.146;2023-07-13T22:04:55;38.20;;;35.90;;
55483;SDS011;41345;51.704;5.146;2023-07-13T22:09:55;35.60;;;33.43;;
55483;SDS011;41345;51.704;5.146;2023-07-13T22:14:56;21.40;;;19.80;;
55483;SDS011;41345;51.704;5.146;2023-07-13T22:19:56;33.65;;;31.85;;
55483;SDS011;41345;51.704;5.146;2023-07-13T22:24:56;29.97;;;28.20;;
55483;SDS011;41345;51.704;5.146;2023-07-13T22:29:56;19.33;;;17.97;;
55483;SDS011;41345;51.704;5.146;2023-07-13T22:34:57;18.10;;;16.70;;
55483;SDS011;41345;51.704;5.146;2023-07-13T22:39:57;36.00;;;33.70;;
55483;SDS011;41345;51.704;5.146;2023-07-13T22:44:58;15.65;;;14.25;;
55483;SDS011;41345;51.704;5.146;2023-07-13T22:49:58;18.50;;;16.85;;
55483;SDS011;41345;51.704;5.146;2023-07-13T22:55:00;22.27;;;20.88;;
55483;SDS011;41345;51.704;5.146;2023-07-13T23:00:01;22.98;;;21.25;;
55483;SDS011;41345;51.704;5.146;2023-07-13T23:05:01;28.27;;;26.37;;
55483;SDS011;41345;51.704;5.146;2023-07-13T23:15:05;38.00;;;35.80;;
55483;SDS011;41345;51.704;5.146;2023-07-13T23:20:16;31.65;;;29.65;;
55483;SDS011;41345;51.704;5.146;2023-07-13T23:25:19;33.22;;;31.02;;
55483;SDS011;41345;51.704;5.146;2023-07-13T23:30:21;42.25;;;39.83;;
55483;SDS011;41345;51.704;5.146;2023-07-13T23:35:23;39.95;;;37.75;;
55483;SDS011;41345;51.704;5.146;2023-07-13T23:40:24;51.83;;;48.92;;
55483;SDS011;41345;51.704;5.146;2023-07-13T23:45:25;44.10;;;41.67;;
55483;SDS011;41345;51.704;5.146;2023-07-13T23:50:30;48.72;;;46.25;;
55483;SDS011;41345;51.704;5.146;2023-07-13T23:55:31;55.90;;;52.80;;
